KIAB/IAB METAR and TAF weather

Enter ICAO airport designator
Station Type Date Time Source
KIAB METAR 2020/07/10 14:56 UTC NOAA

KIAB 101456Z AUTO 27008KT 10SM SCT180 24/16 A2999 RMK AO2 PK WND 17033/10 RAE01 SLP145 P0000 60000 T02410161 55043 TSNO $


Station Type Date Time Source
KIAB Decoded METAR 2020/07/10 14:56 UTC NOAA

McConnell Air Force Base, KS, United States (KIAB) 37-37N 097-16W
Jul 10, 2020 - 10:56 AM EDT / 2020.07.10 1456 UTC
Wind: from the W (270 degrees) at 9 MPH (8 KT):0
Visibility: 10 mile(s):0
Sky conditions: partly cloudy
Precipitation last hour: A trace
Temperature: 75.4 F (24.1 C)
Dew Point: 61.0 F (16.1 C)
Relative Humidity: 60%
Pressure (altimeter): 29.99 in. Hg (1015 hPa)
Pressure tendency: 0.13 inches (4.3 hPa) lower than three hours ago
ob: KIAB 101456Z AUTO 27008KT 10SM SCT180 24/16 A2999 RMK AO2 PK WND 17033/10 RAE01 SLP145 P0000 60000 T02410161 55043 TSNO
cycle: 15

Station Type Date Time Source
KIAB TAF 2020/07/10 10:24 UTC NOAA

TAF KIAB 101000Z 1010/1116 09012KT 9000 -SHRA OVC045 QNH2998INS
TEMPO 1010/1013 26025G35KT 9000 -TSRA BKN030CB OVC045
BECMG 1014/1015 15010G15KT 9999 NSW FEW050 QNH2995INS
BECMG 1115/1116 24010G15KT 9999 SKC 510032 QNH2983INS TX34/1021Z TN23/1011Z

Example: see airport list